createdAt,value
2023-05-21T02:25:39.920Z,13.90
2023-05-21T02:28:09.430Z,14.10
2023-05-21T02:30:39.339Z,14.00
2023-05-21T02:33:10.650Z,13.90
2023-05-21T02:35:40.201Z,14.00
2023-05-21T02:38:10.906Z,14.00
2023-05-21T02:40:40.337Z,13.80
2023-05-21T02:43:09.770Z,13.70
2023-05-21T02:45:39.784Z,13.80
2023-05-21T02:48:10.396Z,13.70
2023-05-21T02:50:39.922Z,13.60
2023-05-21T02:53:09.534Z,13.50
2023-05-21T02:55:39.262Z,13.50
2023-05-21T02:58:08.801Z,13.70
2023-05-21T03:00:38.467Z,13.80
2023-05-21T03:03:08.165Z,13.90
2023-05-21T03:05:39.073Z,14.00
2023-05-21T03:08:08.565Z,14.20
2023-05-21T03:10:37.975Z,14.20
2023-05-21T03:13:09.853Z,14.40
2023-05-21T03:15:40.577Z,14.50
2023-05-21T03:18:10.030Z,14.60
2023-05-21T03:20:46.192Z,14.50
2023-05-21T03:23:16.864Z,14.40
2023-05-21T03:25:47.748Z,14.30
2023-05-21T03:28:17.277Z,14.40
2023-05-21T03:30:51.628Z,14.50
2023-05-21T03:33:21.708Z,14.50
2023-05-21T03:35:51.179Z,14.40
2023-05-21T03:38:20.608Z,14.30
2023-05-21T03:40:50.138Z,14.20
2023-05-21T03:43:19.535Z,14.20
2023-05-21T03:45:49.072Z,14.10
2023-05-21T03:48:19.818Z,14.20
2023-05-21T03:50:49.360Z,14.20
2023-05-21T03:53:18.878Z,14.30
2023-05-21T03:55:48.965Z,14.30
2023-05-21T03:58:18.359Z,14.30
2023-05-21T04:00:47.780Z,14.30
2023-05-21T04:03:17.838Z,14.30
2023-05-21T04:05:47.415Z,14.30
2023-05-21T04:08:17.787Z,14.30
2023-05-21T04:10:48.335Z,14.30
2023-05-21T04:13:18.017Z,14.40
2023-05-21T04:15:48.258Z,14.30
2023-05-21T04:18:22.169Z,14.30
2023-05-21T04:20:51.783Z,14.30
2023-05-21T04:23:22.240Z,14.30
2023-05-21T04:25:52.289Z,14.20
2023-05-21T04:28:21.871Z,14.20
2023-05-21T04:30:51.616Z,14.20
2023-05-21T04:33:22.837Z,14.30
2023-05-21T06:29:30.897Z,12.80
2023-05-21T06:32:00.430Z,12.80
2023-05-21T06:34:30.599Z,12.80
2023-05-21T06:37:00.500Z,12.60
2023-05-21T06:39:30.927Z,12.60
2023-05-21T06:42:00.566Z,12.60
2023-05-21T06:44:29.991Z,12.50
2023-05-21T06:46:59.842Z,12.40
2023-05-21T06:49:29.261Z,12.30
2023-05-21T06:51:59.130Z,12.20
2023-05-21T06:54:28.510Z,12.10
2023-05-21T06:56:57.963Z,12.00
2023-05-21T06:59:27.974Z,11.90
2023-05-21T07:01:57.393Z,11.90
2023-05-21T07:04:26.885Z,11.80
2023-05-21T07:06:56.320Z,11.70
2023-05-21T07:09:26.059Z,11.60
2023-05-21T07:11:55.597Z,11.60
2023-05-21T07:14:28.819Z,11.60
2023-05-21T07:16:58.273Z,11.50
2023-05-21T07:19:28.922Z,11.40
2023-05-21T07:21:58.473Z,11.40
2023-05-21T07:24:30.316Z,11.40
2023-05-21T07:29:46.217Z,11.30
2023-05-21T07:32:15.622Z,11.20
2023-05-21T07:34:45.063Z,11.20
2023-05-21T07:37:15.904Z,11.10
2023-05-21T07:39:45.709Z,11.00
2023-05-21T07:42:15.153Z,11.00
2023-05-21T07:44:45.746Z,10.90
2023-05-21T07:47:16.162Z,10.80
2023-05-21T07:49:46.151Z,10.80
2023-05-21T07:52:16.595Z,10.80
2023-05-21T07:54:46.164Z,10.60
2023-05-21T07:57:16.068Z,10.60
2023-05-21T07:59:45.875Z,10.40
2023-05-21T08:02:15.585Z,10.40
2023-05-21T08:04:46.128Z,10.30
2023-05-21T08:07:18.581Z,10.20
2023-05-21T08:09:50.291Z,10.10
2023-05-21T08:12:22.693Z,10.10
2023-05-21T08:14:52.455Z,10.00
2023-05-21T08:17:22.316Z,10.00
2023-05-21T08:19:51.947Z,10.00
2023-05-21T08:22:21.575Z,10.00
2023-05-21T08:24:52.065Z,10.00
2023-05-21T08:27:22.145Z,10.00
2023-05-21T08:29:51.763Z,9.90
2023-05-21T08:32:21.451Z,9.80
2023-05-21T08:34:51.009Z,9.80
2023-05-21T08:37:20.882Z,9.70
2023-05-21T08:39:50.677Z,9.40
2023-05-21T08:42:37.579Z,9.40
2023-05-21T08:45:08.636Z,9.30
2023-05-21T08:47:38.867Z,9.30
2023-05-21T08:50:11.430Z,9.20
2023-05-21T08:52:41.041Z,9.20
2023-05-21T08:55:11.659Z,9.10
2023-05-21T08:57:45.307Z,9.00
2023-05-21T09:00:15.810Z,8.90
2023-05-21T09:02:47.986Z,8.80
2023-05-21T09:05:17.766Z,8.80
2023-05-21T09:07:53.609Z,8.80
2023-05-21T09:10:25.929Z,8.80
2023-05-21T09:12:55.592Z,8.70
2023-05-21T09:15:25.275Z,8.60
2023-05-21T09:17:55.413Z,8.60
2023-05-21T09:20:28.561Z,8.50
2023-05-21T09:22:58.078Z,8.40
2023-05-21T09:25:30.960Z,8.40
2023-05-21T09:28:01.138Z,8.30
2023-05-21T09:30:32.481Z,8.30
2023-05-21T09:33:05.034Z,8.20
2023-05-21T09:35:36.282Z,8.20
2023-05-21T09:38:11.675Z,8.10
2023-05-21T09:40:45.886Z,8.10
2023-05-21T09:43:18.362Z,8.00
2023-05-21T09:45:58.989Z,7.90
2023-05-21T09:48:44.631Z,7.80
2023-05-21T10:36:40.719Z,6.90
2023-05-21T10:39:11.648Z,6.90
2023-05-21T10:41:47.884Z,6.80
2023-05-21T10:44:38.876Z,6.80
2023-05-21T10:47:11.530Z,6.80
2023-05-21T10:50:19.846Z,6.80
2023-05-21T10:52:49.795Z,6.80
2023-05-21T10:55:19.598Z,6.60
2023-05-21T10:57:57.615Z,6.70
2023-05-21T11:00:27.795Z,6.60
2023-05-21T11:02:57.955Z,6.60
2023-05-21T11:05:45.356Z,6.50
2023-05-21T11:08:24.237Z,6.50
2023-05-21T11:10:55.058Z,6.50
2023-05-21T11:13:25.215Z,6.40
2023-05-21T11:16:00.974Z,6.40
2023-05-21T11:18:33.463Z,6.30
2023-05-21T11:21:10.943Z,6.30
2023-05-21T11:23:55.897Z,6.20
2023-05-21T11:26:26.385Z,6.10
2023-05-21T11:29:11.057Z,6.10
2023-05-21T11:31:41.153Z,6.10
2023-05-21T11:34:31.154Z,6.10
